logo
Search for airport 
image banner adimage banner adimage banner ad
image banner ad

SNJC - Cialne Umirim

Located in Umirim, Brazil

ICAO - SNJC, IATA -

Data provided by Airmate  

General information

Coordinates: S3°41'41" W39°24'31"
Elevation is 285 feet MSL.
Magnetic variation is -20° East
View others Airports in Ceará

Operational data

Special qualification required
Current time UTC:
Current local time:
Weather at : - ( 0 km )
METAR: PAKU 131545Z 23010KT 7SM R24/P6000FT BKN070 BKN110 M20/M22 A2986
View NOTAMs / SUP AIP / TFR affecting this airport [VIEW]
Communications frequencies: [VIEW]

Runways:

RWY identifierQFULength (ft)Width (ft)SurfaceLDA (ft)
09229766OTHER:PIÇ
27229766OTHER:PIÇ

Airport contact information

Address: Umirim Brazil

Satellite view of SNJC